Flight Track Log - Related Links

Times and Time Zones

All times are in EDT time to prevent confusion due to time zone crossing. See the N104HE flight status page for this flight to view local times or setup timezone preferences in your user account.

Time Position Orientation Groundspeed Altitude Reporting Facility
EDT Latitude Longitude Course Direction KTS MPH feet Rate Location/Type
Fri 10:55:20 AM 29.5811 -90.6833 67° East 46 53 1,200  Level Houston Center
Fri 10:55:38 AM 29.5875 -90.6903 317° Northwest 72 83 1,500 911 Climbing Houston Center
Fri 10:56:39 AM 29.5983 -90.7114 301° West 86 99 2,400 884 Climbing Houston Center
Fri 10:57:13 AM 29.6144 -90.7158 347° North 82 94 2,900 806 Climbing Houston Center
Fri 10:57:46 AM 29.6258 -90.7150 North 98 113 3,300 774 Climbing Houston Center
Fri 10:58:15 AM 29.6367 -90.7108 18° North 85 98 3,700 885 Climbing Houston Center
Fri 10:58:47 AM 29.6375 -90.6883 88° East 96 110 4,200 774 Climbing Houston Center
Fri 10:59:17 AM 29.6431 -90.6778 59° Northeast 93 107 4,500 764 Climbing Houston Center
Fri 10:59:42 AM 29.6450 -90.6594 83° East 98 113 4,900 774 Climbing Houston Center
Fri 11:00:19 AM 29.6517 -90.6467 59° Northeast 100 115 5,300 800 Climbing Houston Center
Fri 11:00:42 AM 29.6547 -90.6303 78° East 100 115 5,700 677 Climbing Houston Center
Fri 11:01:00 AM 29.6533 -90.4302 67° East  Level FlightAware Approximate
Fri 11:01:21 AM 29.6611 -90.6175 60° Northeast 99 114 6,000  Level Houston Center
Fri 11:01:43 AM 29.6644 -90.5989 78° East 100 115 6,300 762 Climbing Houston Center
Fri 11:02:24 AM 29.6731 -90.5808 61° Northeast 101 116 6,800 689 Climbing Houston Center
Fri 11:02:44 AM 29.6739 -90.5675 86° East 105 121 7,000 581 Climbing Houston Center
Fri 11:03:26 AM 29.6828 -90.5489 61° Northeast 103 119 7,400 590 Climbing Houston Center
Fri 11:03:45 AM 29.6833 -90.5361 87° East 107 123 7,600 568 Climbing Houston Center
Fri 11:04:40 AM 29.6931 -90.5069 69° East 106 122 8,100 571 Climbing Houston Center
Fri 11:05:30 AM 29.7028 -90.4850 63° Northeast 106 122 8,600 575 Climbing Houston Center
Fri 11:05:53 AM 29.7044 -90.4683 83° East 102 117 8,800 387 Climbing Houston Center
Fri 11:06:32 AM 29.7119 -90.4556 56° Northeast 103 119 9,000 222 Climbing Houston Center
Fri 11:06:47 AM 29.7142 -90.4414 80° East 102 117 9,000  Level Houston Center
Fri 11:07:34 AM 29.7217 -90.4222 66° East 105 121 9,000  Level Houston Center
Fri 11:08:36 AM 29.7350 -90.3792 70° East 113 130 9,000  Level Houston Center
Fri 11:09:38 AM 29.7456 -90.3461 70° East 113 130 9,000  Level Houston Center
Fri 11:10:02 AM 29.7486 -90.3300 78° East 109 125 9,000  Level Houston Center
Fri 11:10:41 AM 29.7558 -90.3136 63° Northeast 110 127 9,000  Level Houston Center
Fri 11:11:43 AM 29.7667 -90.2789 70° East 112 129 9,000  Level Houston Center
Fri 11:12:45 AM 29.7772 -90.2442 71° East 114 131 9,000  Level Houston Center
Fri 11:13:47 AM 29.7878 -90.2094 71° East 115 132 9,000  Level Houston Center
Fri 11:14:49 AM 29.8008 -90.1664 71° East 117 135 9,000  Level Houston Center
Fri 11:15:51 AM 29.8117 -90.1308 71° East 118 136 9,000  Level Houston Center
Fri 11:16:53 AM 29.8219 -90.0967 71° East 115 132 9,000  Level Houston Center
Fri 11:17:55 AM 29.8336 -90.0614 69° East 116 133 9,000  Level Houston Center
Fri 11:18:57 AM 29.8439 -90.0256 72° East 118 136 9,000  Level Houston Center
Fri 11:20:00 AM 29.8589 -89.9825 68° East 120 138 9,000  Level Houston Center
Fri 11:20:59 AM 29.8725 -89.9486 65° Northeast 120 138 9,000  Level Houston Center
Fri 11:22:00 AM 29.8878 -89.9119 64° Northeast 119 137 9,000  Level Houston Center
Fri 11:23:07 AM 29.9033 -89.8756 64° Northeast 119 137 9,000  Level Houston Center
Fri 11:24:08 AM 29.9139 -89.8453 68° East 116 133 9,000  Level Houston Center
Fri 11:25:10 AM 29.9300 -89.8039 66° East 117 135 9,000  Level Houston Center
Fri 11:26:12 AM 29.9442 -89.7689 65° Northeast 120 138 9,000  Level Houston Center
Fri 11:27:15 AM 29.9583 -89.7347 64° Northeast 119 137 9,000  Level Houston Center
Fri 11:28:17 AM 29.9708 -89.7006 67° East 117 135 9,000  Level Houston Center
Fri 11:29:19 AM 29.9844 -89.6664 65° Northeast 117 135 9,000  Level Houston Center
Fri 11:30:21 AM 29.9983 -89.6319 65° Northeast 118 136 9,000  Level Houston Center
Fri 11:31:23 AM 30.0158 -89.5894 65° Northeast 122 140 9,000  Level Houston Center
Fri 11:32:25 AM 30.0286 -89.5536 68° East 122 140 9,000  Level Houston Center
Fri 11:33:27 AM 30.0436 -89.5181 64° Northeast 123 142 9,000  Level Houston Center
Fri 11:34:29 AM 30.0581 -89.4819 65° Northeast 124 143 9,000  Level Houston Center
Fri 11:35:32 AM 30.0714 -89.4464 67° East 123 142 9,000  Level Houston Center
Fri 11:36:34 AM 30.0889 -89.4031 65° Northeast 124 143 9,000  Level Houston Center
Fri 11:37:36 AM 30.1036 -89.3661 65° Northeast 126 145 9,000  Level Houston Center
Fri 11:38:38 AM 30.1183 -89.3294 65° Northeast 127 146 9,000  Level Houston Center
Fri 11:39:40 AM 30.1328 -89.2942 65° Northeast 124 143 9,000  Level Houston Center
Fri 11:40:42 AM 30.1469 -89.2561 67° East 126 145 9,000  Level Houston Center
Fri 11:41:44 AM 30.1636 -89.2122 66° East 125 144 9,000  Level Houston Center
Fri 11:42:46 AM 30.1786 -89.1764 64° Northeast 125 144 9,000  Level Houston Center
Fri 11:43:49 AM 30.1922 -89.1406 66° East 123 142 9,000  Level Houston Center
Fri 11:44:51 AM 30.2061 -89.1047 66° East 123 142 9,000  Level Houston Center
Fri 11:45:53 AM 30.2200 -89.0706 65° Northeast 120 138 9,000  Level Houston Center
Fri 11:46:55 AM 30.2333 -89.0344 67° East 120 138 9,000  Level Houston Center
Fri 11:47:57 AM 30.2511 -88.9917 64° Northeast 123 142 9,000  Level Houston Center
Fri 11:48:59 AM 30.2653 -88.9553 66° East 124 143 9,000  Level Houston Center
Fri 11:50:01 AM 30.2794 -88.9167 67° East 122 140 9,000  Level Houston Center
Fri 11:52:05 AM 30.3064 -88.8469 66° East 119 137 9,000  Level Houston Center
Fri 11:53:08 AM 30.3200 -88.8136 65° Northeast 116 133 9,000  Level Houston Center
Fri 11:54:10 AM 30.3244 -88.7758 82° East 120 138 9,000  Level Houston Center
Fri 11:55:12 AM 30.3242 -88.7350 90° East 126 145 9,000  Level Houston Center
Fri 11:56:14 AM 30.3264 -88.6869 87° East 126 145 9,000  Level Houston Center
Fri 11:57:16 AM 30.3269 -88.6469 89° East 125 144 9,000  Level Houston Center
Fri 11:58:18 AM 30.3281 -88.6075 88° East 124 143 9,000  Level Houston Center
Fri 11:59:20 AM 30.3292 -88.5681 88° East 124 143 9,000  Level Houston Center
Fri 12:00:22 PM 30.3300 -88.5292 89° East 123 142 9,000  Level Houston Center
Fri 12:01:25 PM 30.3319 -88.4811 87° East 124 143 9,000  Level Houston Center
Fri 12:02:27 PM 30.3328 -88.4400 89° East 126 145 9,000  Level Houston Center
Fri 12:03:29 PM 30.3333 -88.4000 89° East 125 144 9,000  Level Houston Center
Fri 12:04:31 PM 30.3344 -88.3603 88° East 124 143 9,000  Level Houston Center
Fri 12:05:33 PM 30.3356 -88.3197 88° East 126 145 9,000  Level Houston Center
Fri 12:06:35 PM 30.3367 -88.2711 88° East 126 145 9,000  Level Houston Center
Fri 12:07:37 PM 30.3367 -88.2308 90° East 126 145 9,000  Level Houston Center
Fri 12:08:39 PM 30.3378 -88.1906 88° East 125 144 9,000  Level Houston Center
Fri 12:09:42 PM 30.3392 -88.1508 88° East 125 144 9,000  Level Houston Center
Fri 12:10:44 PM 30.3406 -88.1106 88° East 125 144 9,000  Level Houston Center
Fri 12:11:46 PM 30.3414 -88.0697 89° East 126 145 9,000 48 Level Houston Center
Fri 12:12:48 PM 30.3422 -88.0236 89° East 120 138 9,100 48 Climbing Houston Center
Fri 12:13:50 PM 30.3436 -87.9833 88° East 123 142 9,100  Level Houston Center
Fri 12:14:52 PM 30.3436 -87.9442 90° East 122 140 9,100  Level Houston Center
Fri 12:15:54 PM 30.3444 -87.9042 89° East 124 143 9,100  Level Houston Center
Fri 12:16:56 PM 30.3456 -87.8644 88° East 125 144 9,100  Level Houston Center
Fri 12:17:59 PM 30.3464 -87.8169 89° East 124 143 9,100  Level Houston Center
Fri 12:19:01 PM 30.3475 -87.7772 88° East 123 142 9,100  Level Houston Center
Fri 12:20:03 PM 30.3486 -87.7369 88° East 124 143 9,100  Level Houston Center
Fri 12:21:05 PM 30.3489 -87.6961 90° East 126 145 9,100  Level Houston Center
Fri 12:22:07 PM 30.3500 -87.6567 88° East 125 144 9,100  Level Houston Center
Fri 12:23:09 PM 30.3494 -87.6172 91° East 122 140 9,100  Level Houston Center
Fri 12:24:11 PM 30.3511 -87.5683 88° East 125 144 9,100  Level Houston Center
Fri 12:25:13 PM 30.3525 -87.5272 88° East 127 146 9,100  Level Houston Center
Fri 12:26:15 PM 30.3519 -87.4875 91° East 126 145 9,100  Level Houston Center
Fri 12:27:17 PM 30.3522 -87.4467 90° East 127 146 9,100  Level Jacksonville Center
Fri 12:28:18 PM 30.3514 -87.4081 91° East 128 147 9,100  Level Jacksonville Center
Fri 12:29:13 PM 30.3528 -87.3672 88° East 126 145 9,100  Level Jacksonville Center
Fri 12:30:14 PM 30.3542 -87.3286 88° East 126 145 9,100  Level Jacksonville Center
Fri 12:31:14 PM 30.3536 -87.2878 91° East 126 145 9,100  Level Jacksonville Center
Fri 12:32:15 PM 30.3531 -87.2444 91° East 125 144 9,100  Level Jacksonville Center
Fri 12:33:16 PM 30.3564 -87.2061 84° East 126 145 9,100  Level Jacksonville Center
Fri 12:34:17 PM 30.3558 -87.1628 91° East 125 144 9,100  Level Jacksonville Center
Fri 12:35:12 PM 30.3569 -87.1292 88° East 127 146 9,100  Level Jacksonville Center
Fri 12:36:12 PM 30.3583 -87.0833 88° East 127 146 9,100  Level Jacksonville Center
Fri 12:37:19 PM 30.3556 -87.0375 94° East 126 145 9,100  Level Jacksonville Center
Fri 12:38:14 PM 30.3569 -87.0017 87° East 127 146 9,100  Level Jacksonville Center
Fri 12:40:00 PM 30.3536 -86.9276 93° East  Level FlightAware Approximate
Fri 12:47:00 PM 30.3164 -86.6368 100° East  Level FlightAware Approximate
Fri 12:48:00 PM 30.3098 -86.5955 100° East  Level FlightAware Approximate
Fri 12:49:00 PM 30.3032 -86.5542 100° East  Level FlightAware Approximate
Fri 12:50:00 PM 30.2966 -86.5129 100° East  Level FlightAware Approximate
Fri 12:51:00 PM 30.2901 -86.4717 100° East  Level FlightAware Approximate
Fri 12:52:00 PM 30.2834 -86.4304 100° East  Level FlightAware Approximate
Fri 12:53:00 PM 30.2768 -86.3891 101° East  Level FlightAware Approximate
Fri 12:54:00 PM 30.2702 -86.3478 101° East  Level FlightAware Approximate
Fri 12:55:00 PM 30.2635 -86.3066 101° East  Level FlightAware Approximate
Fri 12:56:00 PM 30.2569 -86.2653 101° East  Level FlightAware Approximate
Fri 12:57:00 PM 30.2502 -86.2241 101° East  Level FlightAware Approximate
Fri 12:58:00 PM 30.2435 -86.1829 101° East  Level FlightAware Approximate
Fri 12:59:00 PM 30.2368 -86.1416 101° East  Level FlightAware Approximate
Fri 01:00:00 PM 30.2362 -86.1005 91° East  Level FlightAware Approximate
Fri 01:01:00 PM 30.2356 -86.0593 91° East  Level FlightAware Approximate
Fri 01:02:00 PM 30.2349 -86.0182 91° East  Level FlightAware Approximate
Fri 01:03:00 PM 30.2343 -85.9771 91° East  Level FlightAware Approximate
Fri 01:04:00 PM 30.2337 -85.9360 91° East  Level FlightAware Approximate
Fri 01:05:00 PM 30.2302 -85.8931 99° East  Level FlightAware Approximate
Fri 01:06:00 PM 30.2248 -85.8524 99° East  Level FlightAware Approximate
Fri 01:07:00 PM 30.2194 -85.8118 99° East  Level FlightAware Approximate
Fri 01:08:00 PM 30.2140 -85.7711 99° East  Level FlightAware Approximate
Fri 01:09:00 PM 30.2086 -85.7305 99° East  Level FlightAware Approximate
Fri 01:10:00 PM 30.2031 -85.6898 99° East  Level FlightAware Approximate
Fri 01:11:00 PM 30.1966 -85.6495 103° East  Level FlightAware Approximate
Fri 01:12:00 PM 30.1885 -85.6094 103° East  Level FlightAware Approximate
Fri 01:13:00 PM 30.1805 -85.5694 103° East  Level FlightAware Approximate
Fri 01:14:00 PM 30.1604 -85.5354 124° Southeast  Level Estimated
Fri 01:15:00 PM 30.1403 -85.5015 124° Southeast  Level Estimated
Fri 01:16:00 PM 30.1203 -85.4676 124° Southeast  Level Estimated
Fri 01:17:00 PM 30.1002 -85.4337 124° Southeast  Level Estimated
Fri 01:18:00 PM 30.0801 -85.3999 124° Southeast  Level Estimated
Fri 01:19:00 PM 30.0600 -85.3660 124° Southeast  Level Estimated
Fri 01:20:00 PM 30.0399 -85.3322 124° Southeast  Level Estimated
Fri 01:21:00 PM 30.0197 -85.2983 124° Southeast  Level Estimated
Fri 01:22:00 PM 29.9996 -85.2645 124° Southeast  Level Estimated
Fri 01:23:00 PM 29.9795 -85.2307 125° Southeast  Level Estimated
Fri 01:24:00 PM 29.9593 -85.1969 125° Southeast  Level Estimated
Fri 01:25:00 PM 29.9392 -85.1631 125° Southeast  Level Estimated
Fri 01:26:00 PM 29.9190 -85.1294 125° Southeast  Level Estimated
Fri 01:27:00 PM 29.8988 -85.0956 125° Southeast  Level Estimated
Fri 01:28:00 PM 29.8787 -85.0619 125° Southeast  Level Estimated
Fri 01:29:00 PM 29.8585 -85.0282 125° Southeast  Level Estimated
Fri 01:30:00 PM 29.8383 -84.9945 125° Southeast  Level Estimated
Fri 01:31:00 PM 29.8181 -84.9608 125° Southeast  Level Estimated
Fri 01:32:00 PM 29.7978 -84.9271 125° Southeast  Level Estimated
Fri 01:33:00 PM 29.7776 -84.8934 125° Southeast  Level Estimated
Fri 01:33:22 PM 29.6964 -84.8292 115° Southeast 147 169 9,100  Level Jacksonville Center
Fri 01:34:00 PM 29.7574 -84.8598 125° Southeast  Level Estimated
Fri 01:34:22 PM 29.6719 -84.8000 134° Southeast 141 162 9,100  Level Jacksonville Center
Fri 01:35:00 PM 29.7372 -84.8261 125° Southeast  Level Estimated
Fri 01:35:22 PM 29.6472 -84.7686 132° Southeast 141 162 9,100  Level Jacksonville Center
Fri 01:36:00 PM 29.7169 -84.7925 125° Southeast  Level Estimated
Fri 01:36:22 PM 29.6206 -84.7369 134° Southeast 141 162 9,000  Level Jacksonville Center
Fri 01:37:00 PM 29.6966 -84.7589 125° Southeast  Level Estimated
Fri 01:37:22 PM 29.5961 -84.7031 130° Southeast 141 162 9,100  Level Jacksonville Center
Fri 01:38:00 PM 29.6647 -84.7284 115° Southeast  Level FlightAware Approximate
Fri 01:38:22 PM 29.5694 -84.6739 136° Southeast 141 162 9,100  Level Jacksonville Center
Fri 01:39:22 PM 29.5447 -84.6400 130° Southeast 141 162 9,100  Level Jacksonville Center
Fri 01:40:22 PM 29.5181 -84.6061 132° Southeast 141 162 9,100  Level Jacksonville Center
Fri 01:41:22 PM 29.5019 -84.5653 114° Southeast 141 162 9,100  Level Jacksonville Center
Fri 01:42:22 PM 29.4878 -84.5244 112° Southeast 136 157 9,100  Level Jacksonville Center
Fri 01:43:22 PM 29.4736 -84.4836 112° Southeast 136 157 9,100  Level Jacksonville Center
Fri 01:44:22 PM 29.4575 -84.4406 113° Southeast 136 157 9,100  Level Jacksonville Center
Fri 01:45:22 PM 29.4433 -84.3997 112° Southeast 136 157 9,100  Level Jacksonville Center
Fri 01:46:22 PM 29.4292 -84.3614 113° Southeast 136 157 9,100 -50 Level Jacksonville Center
Fri 01:47:22 PM 29.4131 -84.3206 114° Southeast 136 157 9,000  Descending Jacksonville Center
Fri 01:48:22 PM 29.3989 -84.2797 112° Southeast 136 157 9,100 50 Climbing Jacksonville Center
Fri 01:49:22 PM 29.3847 -84.2417 113° Southeast 136 157 9,100  Level Jacksonville Center
Fri 01:50:22 PM 29.3706 -84.1983 111° Southeast 136 157 9,100  Level Jacksonville Center
Fri 01:51:22 PM 29.3564 -84.1600 113° Southeast 136 157 9,100  Level Jacksonville Center
Fri 01:52:22 PM 29.3400 -84.1194 115° Southeast 136 157 9,100 -50 Level Jacksonville Center
Fri 01:53:22 PM 29.3258 -84.0789 112° Southeast 136 157 9,000 -50 Descending Jacksonville Center
Fri 01:54:22 PM 29.3114 -84.0381 112° Southeast 136 157 9,000  Level Jacksonville Center
Fri 01:55:22 PM 29.2972 -83.9975 112° Southeast 136 157 9,000  Level Jacksonville Center
Fri 01:56:22 PM 29.2831 -83.9592 113° Southeast 136 157 9,000  Level Jacksonville Center
Fri 01:57:22 PM 29.2667 -83.9186 115° Southeast 136 157 9,000  Level Jacksonville Center
Fri 01:58:22 PM 29.2544 -83.8781 109° East 136 157 9,000 -50 Level Jacksonville Center
Fri 01:59:22 PM 29.2400 -83.8372 112° Southeast 136 157 8,900 -50 Descending Jacksonville Center
Fri 02:00:22 PM 29.2236 -83.7967 115° Southeast 136 157 8,900  Level Jacksonville Center
Fri 02:01:22 PM 29.2094 -83.7561 112° Southeast 136 157 8,900  Level Jacksonville Center
Fri 02:02:22 PM 29.1950 -83.7181 113° Southeast 136 157 8,900  Level Jacksonville Center
Fri 02:03:22 PM 29.1806 -83.6775 112° Southeast 136 157 8,900  Level Jacksonville Center
Fri 02:04:22 PM 29.1661 -83.6369 112° Southeast 136 157 8,900  Level Jacksonville Center
Fri 02:05:22 PM 29.1519 -83.5986 113° Southeast 136 157 8,900  Level Jacksonville Center
Fri 02:06:22 PM 29.1375 -83.5583 112° Southeast 136 157 8,900  Level Jacksonville Center
Fri 02:07:22 PM 29.1231 -83.5178 112° Southeast 136 157 8,900  Level Jacksonville Center
Fri 02:08:22 PM 29.1086 -83.4819 115° Southeast 136 157 8,900  Level Jacksonville Center
Fri 02:09:22 PM 29.0942 -83.4439 113° Southeast 136 157 8,900  Level Jacksonville Center
Fri 02:10:22 PM 29.0797 -83.4033 112° Southeast 136 157 8,900  Level Jacksonville Center
Fri 02:11:22 PM 29.0653 -83.3653 113° Southeast 136 157 8,900  Level Jacksonville Center
Fri 02:12:22 PM 29.0528 -83.3272 111° Southeast 136 157 8,900  Level Jacksonville Center
Fri 02:13:22 PM 29.0406 -83.2917 111° Southeast 136 157 8,900  Level Jacksonville Center
Fri 02:14:22 PM 29.0300 -83.2511 107° East 131 151 8,900  Level Jacksonville Center
Fri 02:15:22 PM 29.0219 -83.2083 102° East 131 151 8,900  Level Jacksonville Center
Fri 02:16:22 PM 29.0136 -83.1656 103° East 131 151 8,900 -50 Level Jacksonville Center
Fri 02:17:22 PM 29.0075 -83.1253 100° East 125 144 8,800 -300 Descending Jacksonville Center
Fri 02:18:22 PM 28.9908 -83.0872 117° Southeast 125 144 8,300 -600 Descending Jacksonville Center
Fri 02:19:22 PM 28.9722 -83.0492 119° Southeast 140 161 7,600 -659 Descending Jacksonville Center
Fri 02:19:53 PM 28.9639 -83.0278 114° Southeast 139 160 7,300 -500 Descending Jacksonville Center
Fri 02:20:22 PM 28.9575 -83.0089 111° Southeast 135 155 7,100 -444 Descending Jacksonville Center
Fri 02:20:47 PM 28.9492 -82.9969 129° Southeast 137 158 6,900 -200 Descending Jacksonville Center
Fri 02:21:22 PM 28.9408 -82.9708 110° East 135 155 6,900  Level Jacksonville Center
Fri 02:21:49 PM 28.9347 -82.9567 116° Southeast 130 150 6,900  Level Jacksonville Center
Fri 02:22:22 PM 28.9264 -82.9353 114° Southeast 135 155 6,900  Level Jacksonville Center
Fri 02:22:49 PM 28.9181 -82.9211 124° Southeast 124 143 6,900  Level Jacksonville Center
Fri 02:23:22 PM 28.9117 -82.8997 109° East 135 155 6,900  Level Jacksonville Center
Fri 02:23:50 PM 28.9033 -82.8856 124° Southeast 125 144 6,900  Level Jacksonville Center
Fri 02:24:22 PM 28.8969 -82.8617 107° East 135 155 6,900  Level Jacksonville Center
Fri 02:24:51 PM 28.8886 -82.8500 129° Southeast 125 144 6,900  Level Jacksonville Center
Fri 02:25:22 PM 28.8803 -82.8261 112° Southeast 135 155 6,900  Level Jacksonville Center
Fri 02:25:58 PM 28.8700 -82.8047 119° Southeast 128 147 6,900  Level Jacksonville Center
Fri 02:26:22 PM 28.8658 -82.7906 109° East 130 150 6,900  Level Jacksonville Center
Fri 02:26:59 PM 28.8572 -82.7694 115° Southeast 126 145 6,900  Level Jacksonville Center
Fri 02:27:22 PM 28.8511 -82.7575 120° Southeast 130 150 6,900  Level Jacksonville Center
Fri 02:28:00 PM 28.8406 -82.7361 119° Southeast 123 142 6,900  Level Jacksonville Center
Fri 02:28:22 PM 28.8344 -82.7219 116° Southeast 130 150 6,900  Level Jacksonville Center
Fri 02:29:01 PM 28.8281 -82.6983 107° East 127 146 6,900  Level Jacksonville Center
Fri 02:30:02 PM 28.8114 -82.6603 117° Southeast 125 144 6,900  Level Jacksonville Center
Fri 02:31:09 PM 28.7944 -82.6225 117° Southeast 124 143 6,900 37 Level Jacksonville Center
Fri 02:32:46 PM 28.7667 -82.5667 120° Southeast 125 144 7,000 37 Climbing Tampa TRACON
Fri 02:33:52 PM 28.7500 -82.5167 111° Southeast 125 144 7,000 -48 Level Tampa TRACON
Fri 02:34:52 PM 28.7333 -82.4833 120° Southeast 127 146 6,900  Descending Tampa TRACON
Fri 02:35:52 PM 28.7167 -82.4667 139° Southeast 124 143 7,000 50 Climbing Tampa TRACON
Fri 02:36:52 PM 28.6833 -82.4500 156° South 124 143 7,000  Level Tampa TRACON
Fri 02:37:52 PM 28.6500 -82.4333 156° South 125 144 7,000  Level Tampa TRACON
Fri 02:38:52 PM 28.6167 -82.4167 156° South 124 143 7,000  Level Tampa TRACON
Fri 02:39:52 PM 28.5833 -82.4000 156° South 124 143 7,000 -150 Level Tampa TRACON
Fri 02:40:52 PM 28.5500 -82.3667 139° Southeast 127 146 6,700 -450 Descending Tampa TRACON
Fri 02:41:52 PM 28.5167 -82.3500 156° South 140 161 6,100 -632 Descending Tampa TRACON
Fri 02:42:46 PM 28.4833 -82.3333 156° South 145 167 5,500 -737 Descending Tampa TRACON
Fri 02:43:46 PM 28.4500 -82.3167 156° South 141 162 4,700 -793 Descending Tampa TRACON
Fri 02:44:47 PM 28.4167 -82.2833 139° Southeast 142 163 3,900 -857 Descending Tampa TRACON
Fri 02:45:52 PM 28.3833 -82.2667 156° South 137 158 2,900 -450 Descending Tampa TRACON
Fri 02:46:47 PM 28.3500 -82.2500 156° South 128 147 3,000 55 Climbing Tampa TRACON
Fri 02:47:41 PM 28.3333 -82.2333 139° Southeast 125 144 3,000  Level Tampa TRACON
Fri 02:48:41 PM 28.3000 -82.2167 156° South 120 138 3,000  Level Tampa TRACON
Fri 02:49:53 PM 28.2667 -82.1833 139° Southeast 119 137 3,000  Level Tampa TRACON
Fri 02:50:53 PM 28.2333 -82.1667 156° South 117 135 3,000  Level Tampa TRACON
Fri 02:51:53 PM 28.2000 -82.1500 156° South 117 135 3,000 -53 Level Tampa TRACON
Fri 02:52:47 PM 28.1833 -82.1333 139° Southeast 119 137 2,900 -50 Descending Tampa TRACON
Fri 02:53:53 PM 28.1500 -82.1167 156° South 122 140 2,900 -182 Level Tampa TRACON
Fri 02:54:59 PM 28.1167 -82.1000 156° South 131 151 2,500 -182 Descending Tampa TRACON
Fri 02:56:05 PM 28.0833 -82.0667 139° Southeast 123 142 2,500 -53 Level Tampa TRACON
Fri 02:56:53 PM 28.0833 -82.0333 90° East 124 143 2,400 -421 Descending Tampa TRACON
Fri 02:57:59 PM 28.0500 -82.0000 139° Southeast 128 147 1,700 -636 Descending Tampa TRACON
Fri 02:59:05 PM 28.0167 -82.0000 180° South 106 122 1,000 -636 Descending Tampa TRACON
Fri 03:01:00 PM 27.9833 -82.0167 156° South  Level FlightAware Approximate
Fri 03:08:00 PM 27.9889 -82.0186 156° South  Level Estimated
Fri 03:09:00 PM 27.9833 -82.0167 156° South  Level FlightAware Approximate

Login

Don't have an account? Register now (free) for customized features, flight alerts, and more!